Flight Track Log - Related Links

Times and Time Zones

All times are in EDT time to prevent confusion due to time zone crossing. See the ASQ4231 flight status page for this flight to view local times or setup timezone preferences in your user account.

Time Position Orientation Groundspeed Altitude Reporting Facility
EDT Latitude Longitude Course Direction KTS MPH feet Rate Location/Type
Sun 05:22:00 PM 25.5973 -104.5763 64° Northeast  Level FlightAware Approximate
Sun 05:23:00 PM 25.6392 -104.4824 64° Northeast  Level FlightAware Approximate
Sun 05:24:00 PM 25.6809 -104.3884 64° Northeast  Level FlightAware Approximate
Sun 05:25:00 PM 25.7227 -104.2943 64° Northeast  Level FlightAware Approximate
Sun 05:26:00 PM 25.7643 -104.2002 64° Northeast  Level FlightAware Approximate
Sun 05:27:00 PM 25.8059 -104.1060 64° Northeast  Level FlightAware Approximate
Sun 05:28:00 PM 25.8475 -104.0117 64° Northeast  Level FlightAware Approximate
Sun 05:29:00 PM 25.8889 -103.9174 64° Northeast  Level FlightAware Approximate
Sun 05:30:00 PM 25.9303 -103.8230 64° Northeast  Level FlightAware Approximate
Sun 05:31:00 PM 25.9717 -103.7285 64° Northeast  Level FlightAware Approximate
Sun 05:32:00 PM 26.0130 -103.6339 64° Northeast  Level FlightAware Approximate
Sun 05:33:00 PM 26.0542 -103.5394 64° Northeast  Level FlightAware Approximate
Sun 05:34:00 PM 26.0954 -103.4447 64° Northeast  Level FlightAware Approximate
Sun 05:35:00 PM 26.1365 -103.3499 64° Northeast  Level FlightAware Approximate
Sun 05:36:00 PM 26.1775 -103.2551 64° Northeast  Level FlightAware Approximate
Sun 05:37:00 PM 26.2185 -103.1603 64° Northeast  Level FlightAware Approximate
Sun 05:38:00 PM 26.2594 -103.0653 64° Northeast  Level FlightAware Approximate
Sun 05:39:00 PM 26.3003 -102.9703 64° Northeast  Level FlightAware Approximate
Sun 05:40:00 PM 26.3411 -102.8753 64° Northeast  Level FlightAware Approximate
Sun 05:41:00 PM 26.3818 -102.7801 64° Northeast  Level FlightAware Approximate
Sun 05:42:00 PM 26.4225 -102.6849 64° Northeast  Level FlightAware Approximate
Sun 05:43:00 PM 26.4631 -102.5897 65° Northeast  Level FlightAware Approximate
Sun 05:44:00 PM 26.5036 -102.4943 65° Northeast  Level FlightAware Approximate
Sun 05:45:00 PM 26.5441 -102.3989 65° Northeast  Level FlightAware Approximate
Sun 05:46:00 PM 26.5845 -102.3034 65° Northeast  Level FlightAware Approximate
Sun 05:47:00 PM 26.6249 -102.2079 65° Northeast  Level FlightAware Approximate
Sun 05:48:00 PM 26.6652 -102.1123 65° Northeast  Level FlightAware Approximate
Sun 05:49:00 PM 26.7054 -102.0166 65° Northeast  Level FlightAware Approximate
Sun 05:50:00 PM 26.7463 -101.9213 63° Northeast  Level FlightAware Approximate
Sun 05:51:00 PM 26.7888 -101.8268 63° Northeast  Level FlightAware Approximate
Sun 05:52:00 PM 26.8313 -101.7322 63° Northeast  Level FlightAware Approximate
Sun 05:53:00 PM 26.8737 -101.6376 63° Northeast  Level FlightAware Approximate
Sun 05:54:00 PM 26.9160 -101.5429 63° Northeast  Level FlightAware Approximate
Sun 05:55:00 PM 26.9550 -101.4467 74° East  Level FlightAware Approximate
Sun 05:56:00 PM 26.9806 -101.3447 74° East  Level FlightAware Approximate
Sun 05:57:00 PM 27.0061 -101.2426 74° East  Level FlightAware Approximate
Sun 05:58:00 PM 27.0315 -101.1404 74° East  Level FlightAware Approximate
Sun 05:59:00 PM 27.0568 -101.0382 74° East  Level FlightAware Approximate
Sun 06:00:00 PM 27.0821 -100.9360 74° East  Level FlightAware Approximate
Sun 06:01:00 PM 27.1073 -100.8337 75° East  Level FlightAware Approximate
Sun 06:02:00 PM 27.1324 -100.7314 75° East  Level FlightAware Approximate
Sun 06:03:00 PM 27.1574 -100.6290 75° East  Level FlightAware Approximate
Sun 06:04:00 PM 27.1824 -100.5266 75° East  Level FlightAware Approximate
Sun 06:05:00 PM 27.2073 -100.4242 75° East  Level FlightAware Approximate
Sun 06:05:47 PM 26.7697 -100.0958 75° East 401 461 37,000  Level Houston Center
Sun 06:06:00 PM 27.2321 -100.3216 75° East  Level FlightAware Approximate
Sun 06:06:49 PM 26.8336 -99.9950 55° Northeast 404 465 37,000  Level Houston Center
Sun 06:07:00 PM 27.2574 -100.2193 74° East  Level FlightAware Approximate
Sun 06:07:51 PM 26.9042 -99.8992 50° Northeast 401 461 37,000  Level Houston Center
Sun 06:08:00 PM 27.2826 -100.1168 74° East  Level FlightAware Approximate
Sun 06:08:53 PM 26.9750 -99.8033 50° Northeast 400 460 37,000  Level Houston Center
Sun 06:09:00 PM 27.3078 -100.0144 75° East  Level FlightAware Approximate
Sun 06:09:55 PM 27.0467 -99.7064 50° Northeast 403 464 37,000  Level Houston Center
Sun 06:10:00 PM 27.3329 -99.9118 75° East  Level FlightAware Approximate
Sun 06:10:57 PM 27.1183 -99.6086 51° Northeast 404 465 37,000  Level Houston Center
Sun 06:11:00 PM 27.3579 -99.8093 75° East  Level FlightAware Approximate
Sun 06:11:59 PM 27.2056 -99.4889 51° Northeast 410 472 37,000  Level Houston Center
Sun 06:13:01 PM 27.2792 -99.3883 51° Northeast 414 476 37,000  Level Houston Center
Sun 06:14:03 PM 27.3528 -99.2892 50° Northeast 414 476 37,000  Level Houston Center
Sun 06:15:04 PM 27.4267 -99.1875 51° Northeast 417 480 37,000  Level Houston Center
Sun 06:16:06 PM 27.5000 -99.0875 50° Northeast 417 480 37,000  Level Houston Center
Sun 06:17:08 PM 27.5825 -98.9747 50° Northeast 433 498 37,000  Level Houston Center
Sun 06:18:10 PM 27.6561 -98.8703 51° Northeast 422 486 37,000  Level Houston Center
Sun 06:19:12 PM 27.7292 -98.7669 51° Northeast 421 484 37,000  Level Houston Center
Sun 06:20:14 PM 27.8028 -98.6644 51° Northeast 419 482 37,000  Level Houston Center
Sun 06:21:16 PM 27.8911 -98.5392 51° Northeast 423 487 37,000  Level Houston Center
Sun 06:22:18 PM 27.9669 -98.4361 50° Northeast 426 490 37,000  Level Houston Center
Sun 06:23:20 PM 28.0400 -98.3308 52° Northeast 427 491 37,000  Level Houston Center
Sun 06:24:22 PM 28.1153 -98.2256 51° Northeast 429 494 37,000  Level Houston Center
Sun 06:25:24 PM 28.1911 -98.1214 50° Northeast 429 494 37,000  Level Houston Center
Sun 06:26:26 PM 28.2739 -98.0036 51° Northeast 434 499 37,000  Level Houston Center
Sun 06:27:28 PM 28.3486 -97.8967 52° Northeast 434 499 37,000  Level Houston Center
Sun 06:28:29 PM 28.4242 -97.7894 51° Northeast 436 502 37,000  Level Houston Center
Sun 06:29:31 PM 28.4997 -97.6811 52° Northeast 436 502 37,000  Level Houston Center
Sun 06:30:33 PM 28.5758 -97.5733 51° Northeast 438 504 37,000  Level Houston Center
Sun 06:31:35 PM 28.6675 -97.4428 51° Northeast 440 506 37,000  Level Houston Center
Sun 06:32:37 PM 28.7436 -97.3342 51° Northeast 440 506 37,000  Level Houston Center
Sun 06:33:39 PM 28.8206 -97.2256 51° Northeast 441 507 37,000  Level Houston Center
Sun 06:34:41 PM 28.9369 -97.1611 26° Northeast 422 486 37,000 -48 Level Houston Center
Sun 06:35:43 PM 29.0456 -97.1781 352° North 429 494 36,900 -387 Descending Houston Center
Sun 06:36:45 PM 29.1658 -97.1942 353° North 429 494 36,200 -581 Descending Houston Center
Sun 06:37:47 PM 29.2903 -97.1986 358° North 449 517 35,700 -1,500 Descending Houston Center
Sun 06:38:49 PM 29.3975 -97.0917 41° Northeast 429 494 33,100 -1,935 Descending Houston Center
Sun 06:39:51 PM 29.4239 -96.9531 78° East 430 495 31,700 -2,274 Descending Houston Center
Sun 06:40:53 PM 29.4458 -96.8106 80° East 434 499 28,400 -3,532 Descending Houston Center
Sun 06:41:55 PM 29.4642 -96.6769 81° East 421 484 24,400 -3,726 Descending Houston Center
Sun 06:42:57 PM 29.4069 -96.5661 121° Southeast 403 464 20,700 -3,561 Descending Houston Center
Sun 06:43:58 PM 29.3625 -96.4622 116° Southeast 380 437 17,100 -3,463 Descending Houston Center
Sun 06:45:00 PM 29.4117 -96.3608 61° Northeast 368 423 13,600 -2,686 Descending Houston Center
Sun 06:45:43 PM 29.4633 -96.2861 52° Northeast 371 427 12,400 -1,475 Descending Houston Center
Sun 06:46:01 PM 29.4839 -96.2550 53° Northeast 374 430 12,100 -300 Descending Houston Center
Sun 06:47:03 PM 29.5456 -96.1667 51° Northeast 355 409 12,000 -49 Descending Houston Center
Sun 06:48:04 PM 29.5961 -96.0697 59° Northeast 352 405 12,000 -259 Level Houston Center
Sun 06:48:59 PM 29.6425 -95.9756 60° Northeast 352 405 11,500 -672 Descending Houston Center
Sun 06:50:09 PM 29.6947 -95.8703 60° Northeast 342 394 10,600 -1,172 Descending Houston Center
Sun 06:51:07 PM 29.7369 -95.7844 60° Northeast 294 338 9,000 -1,258 Descending Houston Center
Sun 06:52:13 PM 29.7775 -95.7053 59° Northeast 296 341 8,000 -634 Descending Houston Center
Sun 06:53:10 PM 29.8208 -95.6183 60° Northeast 295 339 7,700 -629 Descending Houston Center
Sun 06:54:17 PM 29.8592 -95.5428 60° Northeast 292 336 6,700 -836 Descending Houston Center
Sun 06:55:12 PM 29.8961 -95.4528 65° Northeast 291 335 6,000 -359 Descending Houston Center
Sun 06:56:14 PM 29.8964 -95.3636 90° East 278 320 6,000  Level Houston Center
Sun 06:57:15 PM 29.8956 -95.2647 91° East 289 333 6,000 -195 Level Houston Center
Sun 06:58:17 PM 29.8936 -95.1758 91° East 276 318 5,600 -1,610 Descending Houston Center
Sun 06:59:18 PM 29.8922 -95.0917 91° East 266 306 2,700 -1,805 Descending Houston Center
Sun 07:00:20 PM 29.8944 -95.0044 88° East 240 276 1,900 -321 Descending Houston Center
Sun 07:01:29 PM 29.9483 -95.0117 353° North 217 250 2,000 46 Climbing Houston Center
Sun 07:02:31 PM 29.9708 -95.0733 293° West 211 243 2,000 -53 Level Houston Center
Sun 07:03:23 PM 29.9769 -95.1439 276° West 211 243 1,900 -98 Descending Houston Center
Sun 07:04:34 PM 29.9783 -95.2078 271° West 184 212 1,800 -406 Descending Houston Center
Sun 07:05:36 PM 29.9786 -95.2511 270° West 150 173 1,000 -677 Descending Houston Center
Sun 07:06:38 PM 29.9772 -95.3053 268° West 151 174 400 -581 Descending Houston Center

Login

Don't have an account? Register now (free) for customized features, flight alerts, and more!